AirNav   Air Wisconsin Up To $57,000 Bonus
 
 1166 users online  

24WI Irlbeck Airport
Somerset, Wisconsin, USA

GOING TO SOMERSET?


FAA INFORMATION EFFECTIVE 09 SEPTEMBER 2021

Location

FAA Identifier: 24WI
Lat/Long: 45-05-43.8800N 092-40-25.7290W
45-05.731333N 092-40.428817W
45.0955222,-92.6738136
(estimated)
Elevation: 990 ft. / 302 m (estimated)
Variation: 03E (1985)
From city: 2 miles S of SOMERSET, WI
Time zone: UTC -5 (UTC -6 during Standard Time)
Zip code: 54025

Airport Operations

Airport use: Private use. Permission required prior to landing
Activation date: 05/1978
Control tower: no
ARTCC: MINNEAPOLIS CENTER
FSS: GREEN BAY FLIGHT SERVICE STATION
Attendance: UNATNDD
Wind indicator: yes
Segmented circle: no

Airport Communications

WX AWOS-3 at RNH (7 nm NE): 120.0 (715-246-3202)
WX AWOS-3 at 21D (10 nm SW): 120.075 (651-779-5949)
WX AWOS-3 at OEO (13 nm N): 119.925 (715-294-3845)
WX ASOS at STP (19 nm SW): 118.35 (651-312-8888)

Nearby radio navigation aids

VOR radial/distance  VOR name  Freq  Var
MSPr061/26.7MINNEAPOLIS VOR/DME115.3002E
GEPr090/29.8GOPHER VORTAC117.3006E
FGTr032/35.3FARMINGTON VORTAC115.7006E
FCMr063/36.4FLYING CLOUD VOR/DME117.7001E

 
NDB name  Hdg/Dist  Freq  Var  ID
RUSH CITY160/37.928202EROS .-. --- ...

Airport Services

Runway Information

Runway 18/36

Dimensions: 2000 x 50 ft. / 610 x 15 m
Surface: turf
RUNWAY 18  RUNWAY 36
Traffic pattern: leftleft
Obstructions: plinesnone

Airport Ownership and Management from official FAA records

Ownership: Privately-owned
Owner: THOMAS H. IRLBECK
5234 SUNSET CT
CAPE CORAL, FL 33904-5865
Phone (570) 807-0904
Manager: THOMAS H. IRLBECK
5234 SUNSET CT
CAPE CORAL, FL 33904-5865
Phone (570) 807-0904
EMAIL ADDRESS: BEARINTHEAIR10@GMAIL.COM (ALL LOWER CASE)

Airport Operational Statistics

Aircraft based on the field: 1
Single engine airplanes: 1
    

Additional Remarks

OWNER DESIRES ARPT NOT BE CHARTED.
FOR CD CTC MINNEAPOLIS ARTCC AT 651-463-5588.

Instrument Procedures

There are no published instrument procedures at 24WI.

Some nearby airports with instrument procedures:

KRNH - New Richmond Regional Airport (7 nm NE)
21D - Lake Elmo Airport (10 nm SW)
KOEO - L O Simenstad Municipal Airport (13 nm N)
KAHH - Amery Municipal Airport (17 nm NE)
KSTP - St Paul Downtown Airport Holman Field (19 nm SW)
 
Loc | Ops | Rwys | IFR | FBO | Links
Com | Nav | Svcs | Stats | Notes
Area around 24WI (Irlbeck Airport)
 
Road maps at: MapQuest Bing Google
 
Aerial photo
No photo
 
Sectional chart

 
Airport distance calculator
Flying to Irlbeck Airport? Find the distance to fly.

From to 24WI

Sunrise and sunset
Times for 23-Sep-2021
 Local
(UTC-5)
 Zulu
(UTC)
Morning civil twilight06:3111:31
Sunrise07:0012:00
Sunset19:0600:06
Evening civil twilight19:3600:36

Current date and time
Zulu (UTC)  23-Sep-2021 23:29:49
Local (UTC-5)  23-Sep-2021 18:29:49
 
METAR
KRNH 
7nm NE 
232315Z AUTO 00000KT 10SM CLR 20/07 A2996 RMK AO2 T01970067
K21D 
10nm SW 
232315Z AUTO 14003KT 10SM CLR 20/06 A2996 RMK AO2
KOEO 
12nm N 
232315Z AUTO 17003KT 10SM CLR 20/05 A2998 RMK AO2 T02030054
KSTP 
19nm SW 
232253Z 18003KT 10SM CLR 22/06 A2994 RMK AO2 SLP136 T02170056
TAF
KRNH 
7nm NE 
231720Z 2318/2418 23005KT P6SM SKC FM240000 00000KT P6SM SKC FM241200 24005KT P6SM BKN250 FM241600 34010G16KT P6SM BKN150 PROB30 2416/2417 P6SM -SHRA BKN050
NOTAMs
Click for the latest NOTAMs
NOTAMs are issued by the DoD/FAA and will open in a separate window not controlled by AirNav.

 

 
 

Would you like to see your business listed on this page?

 If your business provides an interesting product or service to pilots, flight crews, aircraft, or users of the Irlbeck Airport, you should consider listing it here.  To start the listing process, click on the button below
 
Add a business
 

Other Pages about Irlbeck Airport

Update a link
 
Copyright © AirNav, LLC. All rights reserved. Privacy Policy  Contact